Time;durP1;ratioP1;P1;durP2;ratioP2;P2;SDS_P1;SDS_P2;PMS_P1;PMS_P2;Temp;Humidity;BMP_temperature;BMP_pressure;BME280_temperature;BME280_humidity;BME280_pressure;Samples;Min_cycle;Max_cycle;Signal;HPM_P1;HPM_P2
2022/04/15 00:00:10;;;;;;;1.20;1.20;;;19.40;65.60;;;;;;5027055;28;44770;-71
2022/04/15 00:02:42;;;;;;;1.47;1.47;;;19.30;65.70;;;;;;5008716;28;44060;-71
2022/04/15 00:07:55;;;;;;;1.40;1.40;;;19.20;66.20;;;;;;5027689;28;43892;-72
2022/04/15 00:10:24;;;;;;;1.47;1.47;;;19.20;66.30;;;;;;5027194;28;44061;-72
2022/04/15 00:12:54;;;;;;;1.57;1.57;;;19.10;66.40;;;;;;5026320;28;43945;-71
2022/04/15 00:15:22;;;;;;;1.60;1.60;;;19.10;66.50;;;;;;5027041;28;44114;-72
2022/04/15 00:17:52;;;;;;;1.50;1.50;;;19.10;66.90;;;;;;5008840;28;43893;-72
2022/04/15 00:20:20;;;;;;;1.30;1.30;;;19.20;66.80;;;;;;5026840;28;43748;-72
2022/04/15 00:22:47;;;;;;;1.40;1.40;;;19.40;66.40;;;;;;5009497;28;45109;-72
2022/04/15 00:25:15;;;;;;;1.30;1.30;;;19.60;65.80;;;;;;5009103;28;43937;-72
2022/04/15 00:27:43;;;;;;;1.57;1.57;;;19.80;65.10;;;;;;5027827;28;43791;-72
2022/04/15 00:30:12;;;;;;;1.30;1.30;;;19.90;64.70;;;;;;5026673;28;43973;-72
2022/04/15 00:32:41;;;;;;;1.20;1.20;;;19.90;64.60;;;;;;5026806;28;43882;-71
2022/04/15 00:35:10;;;;;;;1.30;1.30;;;19.80;64.70;;;;;;5026214;28;43940;-72
2022/04/15 00:37:39;;;;;;;1.60;1.60;;;19.60;64.80;;;;;;5027301;28;43984;-72
2022/04/15 00:40:09;;;;;;;1.60;1.60;;;19.50;65.10;;;;;;5026163;28;44032;-72
2022/04/15 00:42:37;;;;;;;1.40;1.40;;;19.50;65.50;;;;;;5026735;28;43787;-72
2022/04/15 00:45:09;;;;;;;1.40;1.40;;;19.40;65.70;;;;;;5008349;28;44021;-72
2022/04/15 00:47:51;;;;;;;1.50;1.50;;;19.30;66.00;;;;;;5027076;28;43973;-71
2022/04/15 00:50:20;;;;;;;1.40;1.40;;;19.20;66.00;;;;;;5026472;28;44038;-71
2022/04/15 00:52:49;;;;;;;1.47;1.47;;;19.20;66.50;;;;;;5026053;28;43442;-71
2022/04/15 00:55:17;;;;;;;1.50;1.50;;;19.30;66.40;;;;;;5026593;28;44020;-72
2022/04/15 00:57:49;;;;;;;1.30;1.30;;;19.50;65.90;;;;;;5026633;28;44269;-72
2022/04/15 01:00:17;;;;;;;1.53;1.53;;;19.60;65.50;;;;;;5026519;28;43987;-73
2022/04/15 01:02:45;;;;;;;1.40;1.40;;;19.60;65.40;;;;;;5026268;28;44098;-72
2022/04/15 01:05:14;;;;;;;1.40;1.40;;;19.50;65.40;;;;;;5026276;28;43397;-72
2022/04/15 01:07:44;;;;;;;1.40;1.40;;;19.40;65.60;;;;;;5027197;28;43421;-72
2022/04/15 01:10:13;;;;;;;1.60;1.60;;;19.30;65.80;;;;;;5008293;28;46625;-72
2022/04/15 01:12:41;;;;;;;1.40;1.40;;;19.30;66.00;;;;;;5020000;28;43937;-72
2022/04/15 01:15:11;;;;;;;1.50;1.50;;;19.20;66.10;;;;;;5018529;28;43380;-72
2022/04/15 01:17:39;;;;;;;1.47;1.47;;;19.20;66.40;;;;;;5014944;28;43937;-72
2022/04/15 01:20:08;;;;;;;1.73;1.73;;;19.10;66.40;;;;;;5025569;28;45060;-71
2022/04/15 01:22:38;;;;;;;1.50;1.50;;;19.10;66.50;;;;;;5026038;28;44001;-71
2022/04/15 01:25:08;;;;;;;1.50;1.50;;;19.10;66.90;;;;;;5025590;28;43865;-73
2022/04/15 01:27:37;;;;;;;1.40;1.40;;;19.20;66.90;;;;;;5026414;28;43900;-72
2022/04/15 01:30:06;;;;;;;1.43;1.43;;;19.40;66.60;;;;;;5025097;28;43940;-72
2022/04/15 01:32:34;;;;;;;1.50;1.50;;;19.60;66.00;;;;;;5025649;28;43447;-71
2022/04/15 01:35:02;;;;;;;1.53;1.53;;;19.80;65.20;;;;;;5025470;28;43873;-72
2022/04/15 01:37:31;;;;;;;1.50;1.50;;;19.90;64.80;;;;;;5026369;28;43364;-72
2022/04/15 01:39:59;;;;;;;1.30;1.30;;;19.90;64.60;;;;;;5025171;28;43978;-71
2022/04/15 01:42:28;;;;;;;1.30;1.30;;;19.80;64.60;;;;;;5026316;28;44031;-72
2022/04/15 01:44:56;;;;;;;1.40;1.40;;;19.70;64.90;;;;;;5025471;28;43374;-71
2022/04/15 01:47:24;;;;;;;1.50;1.50;;;19.60;65.10;;;;;;5024604;28;44245;-72
2022/04/15 01:49:52;;;;;;;1.63;1.63;;;19.50;65.30;;;;;;5025327;28;44094;-72
2022/04/15 01:52:20;;;;;;;1.70;1.70;;;19.40;65.60;;;;;;5025755;28;44046;-72
2022/04/15 01:54:48;;;;;;;1.70;1.70;;;19.30;65.80;;;;;;5025030;28;43955;-72
2022/04/15 01:57:16;;;;;;;1.47;1.47;;;19.30;66.10;;;;;;5026274;28;43882;-72
2022/04/15 01:59:45;;;;;;;1.57;1.57;;;19.30;66.50;;;;;;5025738;28;43925;-72
2022/04/15 02:02:16;;;;;;;1.50;1.50;;;19.30;66.40;;;;;;5025592;28;43951;-72
2022/04/15 02:04:44;;;;;;;1.60;1.60;;;19.50;65.90;;;;;;5024644;28;44038;-71
2022/04/15 02:07:12;;;;;;;1.80;1.80;;;19.60;65.60;;;;;;5023927;28;43987;-72
2022/04/15 02:09:40;;;;;;;1.50;1.50;;;19.60;65.40;;;;;;5023954;28;46980;-71
2022/04/15 02:12:09;;;;;;;1.60;1.60;;;19.50;65.40;;;;;;5025215;28;43798;-72
2022/04/15 02:14:37;;;;;;;1.60;1.60;;;19.40;65.50;;;;;;5023783;28;43952;-72
2022/04/15 02:17:06;;;;;;;1.53;1.53;;;19.40;65.80;;;;;;5025335;28;44031;-72
2022/04/15 02:19:34;;;;;;;1.43;1.43;;;19.30;66.00;;;;;;5025361;28;43936;-72
2022/04/15 02:22:02;;;;;;;1.70;1.70;;;19.20;66.10;;;;;;5024721;28;44005;-72
2022/04/15 02:24:30;;;;;;;1.40;1.40;;;19.20;66.20;;;;;;5025648;28;43834;-72
2022/04/15 02:26:58;;;;;;;1.50;1.50;;;19.10;66.40;;;;;;5028349;28;44021;-72
2022/04/15 02:29:26;;;;;;;1.47;1.47;;;19.10;66.50;;;;;;5028394;28;43996;-72
2022/04/15 02:31:54;;;;;;;1.50;1.50;;;19.10;66.60;;;;;;5028266;28;44318;-72
2022/04/15 02:34:23;;;;;;;1.57;1.57;;;19.10;66.60;;;;;;5028528;28;43364;-71
2022/04/15 02:36:51;;;;;;;1.60;1.60;;;19.10;66.70;;;;;;5028713;28;44002;-72
2022/04/15 02:39:20;;;;;;;1.60;1.60;;;19.10;66.80;;;;;;5028129;28;46058;-71
2022/04/15 02:41:51;;;;;;;1.70;1.70;;;19.10;66.80;;;;;;5028147;28;43344;-72
2022/04/15 02:44:19;;;;;;;1.50;1.50;;;19.00;66.70;;;;;;5028982;28;43371;-72
2022/04/15 02:46:47;;;;;;;1.60;1.60;;;19.00;66.70;;;;;;5028861;28;43906;-72
2022/04/15 02:49:15;;;;;;;1.97;1.97;;;19.00;66.80;;;;;;5028741;28;43912;-72
2022/04/15 02:51:44;;;;;;;1.60;1.60;;;19.00;67.00;;;;;;5028287;28;44162;-72
2022/04/15 02:54:12;;;;;;;1.60;1.60;;;19.10;66.90;;;;;;5028223;28;43906;-72
2022/04/15 02:56:40;;;;;;;1.50;1.50;;;19.30;66.70;;;;;;5029012;28;44036;-72
2022/04/15 02:59:08;;;;;;;1.60;1.60;;;19.40;66.30;;;;;;5009901;28;46010;-72
2022/04/15 03:01:36;;;;;;;1.53;1.53;;;19.60;65.80;;;;;;5028478;28;44160;-72
2022/04/15 03:04:04;;;;;;;1.47;1.47;;;19.90;65.40;;;;;;5028217;28;44113;-72
2022/04/15 03:06:32;;;;;;;1.80;1.80;;;20.10;64.70;;;;;;5028587;28;43948;-72
2022/04/15 03:09:01;;;;;;;1.50;1.50;;;20.30;64.00;;;;;;5027498;28;43884;-72
2022/04/15 03:11:32;;;;;;;1.50;1.50;;;20.50;63.40;;;;;;5027970;28;43969;-72
2022/04/15 03:14:00;;;;;;;1.60;1.60;;;20.60;63.00;;;;;;5027765;28;43972;-72
2022/04/15 03:16:28;;;;;;;1.50;1.50;;;20.70;62.70;;;;;;5027634;28;43978;-72
2022/04/15 03:18:56;;;;;;;1.50;1.50;;;20.70;62.30;;;;;;5027720;28;44806;-72
2022/04/15 03:21:24;;;;;;;1.60;1.60;;;20.80;62.90;;;;;;5028178;28;43992;-72
2022/04/15 03:23:52;;;;;;;1.40;1.40;;;20.80;62.10;;;;;;5009595;28;43985;-71
2022/04/15 03:26:23;;;;;;;1.60;1.60;;;20.70;62.20;;;;;;5028750;28;43996;-72
2022/04/15 03:28:51;;;;;;;1.60;1.60;;;20.50;62.60;;;;;;5027521;28;43897;-73
2022/04/15 03:31:19;;;;;;;1.50;1.50;;;20.40;63.20;;;;;;5027730;28;43946;-72
2022/04/15 03:33:47;;;;;;;1.60;1.60;;;20.10;63.60;;;;;;5027361;28;43450;-72
2022/04/15 03:36:15;;;;;;;1.50;1.50;;;20.00;64.00;;;;;;5028359;28;43462;-72
2022/04/15 03:38:43;;;;;;;1.70;1.70;;;19.80;64.30;;;;;;5027208;28;43908;-72
2022/04/15 03:41:11;;;;;;;1.60;1.60;;;19.70;65.30;;;;;;5027558;28;43871;-72
2022/04/15 03:43:40;;;;;;;1.60;1.60;;;19.70;65.60;;;;;;5010014;28;44010;-72
2022/04/15 03:46:08;;;;;;;1.60;1.60;;;19.80;65.60;;;;;;5009454;28;43989;-73
2022/04/15 03:48:36;;;;;;;1.57;1.57;;;19.90;65.30;;;;;;5027448;28;43975;-72
2022/04/15 03:51:04;;;;;;;1.70;1.70;;;20.00;64.80;;;;;;5027100;28;44034;-72
2022/04/15 03:53:32;;;;;;;1.70;1.70;;;20.10;64.40;;;;;;5009561;28;43958;-72
2022/04/15 03:56:00;;;;;;;1.70;1.70;;;20.10;64.30;;;;;;5027100;28;43878;-72
2022/04/15 03:58:28;;;;;;;1.50;1.50;;;20.10;64.30;;;;;;5027601;28;44681;-72
2022/04/15 04:00:57;;;;;;;1.60;1.60;;;20.00;64.50;;;;;;5026743;28;44032;-72
2022/04/15 04:03:25;;;;;;;1.50;1.50;;;19.80;64.60;;;;;;5027473;28;43986;-71
2022/04/15 04:05:53;;;;;;;1.73;1.73;;;19.70;64.80;;;;;;5027162;28;43961;-72
2022/04/15 04:08:21;;;;;;;1.70;1.70;;;19.60;65.10;;;;;;5027329;28;44356;-73
2022/04/15 04:10:50;;;;;;;1.50;1.50;;;19.50;65.30;;;;;;5026836;28;43809;-71
2022/04/15 04:13:18;;;;;;;1.70;1.70;;;19.50;66.40;;;;;;5009186;28;44030;-72
2022/04/15 04:15:46;;;;;;;2.00;2.00;;;19.50;66.50;;;;;;5027406;28;43665;-72
2022/04/15 04:18:20;;;;;;;1.83;1.83;;;19.60;66.00;;;;;;5027327;28;43865;-72
2022/04/15 04:20:48;;;;;;;1.70;1.70;;;19.70;65.80;;;;;;5026716;28;43957;-71
2022/04/15 04:23:16;;;;;;;1.73;1.73;;;19.70;65.60;;;;;;5009027;28;44032;-72
2022/04/15 04:25:44;;;;;;;1.50;1.50;;;19.60;65.40;;;;;;5027176;28;43955;-73
2022/04/15 04:28:12;;;;;;;1.63;1.63;;;19.50;65.40;;;;;;5009205;28;45713;-71
2022/04/15 04:30:40;;;;;;;1.60;1.60;;;19.50;65.60;;;;;;5026997;28;44178;-71
2022/04/15 04:33:08;;;;;;;1.73;1.73;;;19.40;65.80;;;;;;5026455;28;43996;-72
2022/04/15 04:35:38;;;;;;;1.80;1.80;;;19.30;65.90;;;;;;5021178;28;44013;-71
2022/04/15 04:38:07;;;;;;;1.83;1.83;;;19.30;66.10;;;;;;5020856;28;44054;-72
2022/04/15 04:40:35;;;;;;;1.70;1.70;;;19.20;66.20;;;;;;5020585;28;44002;-71
2022/04/15 04:43:04;;;;;;;1.70;1.70;;;19.20;66.40;;;;;;5020695;28;43973;-71
2022/04/15 04:45:33;;;;;;;1.90;1.90;;;19.20;67.00;;;;;;5027475;28;44542;-72
2022/04/15 04:48:01;;;;;;;1.83;1.83;;;19.30;67.00;;;;;;5026675;28;44797;-72
2022/04/15 04:50:29;;;;;;;1.73;1.73;;;19.50;66.50;;;;;;5025727;28;43897;-72
2022/04/15 04:52:59;;;;;;;1.80;1.80;;;19.70;66.00;;;;;;5026862;28;43954;-72
2022/04/15 04:55:28;;;;;;;1.87;1.87;;;19.80;65.40;;;;;;5027398;28;43913;-71
2022/04/15 04:57:56;;;;;;;1.80;1.80;;;19.90;65.10;;;;;;5026460;28;43577;-71
2022/04/15 05:00:24;;;;;;;1.90;1.90;;;19.90;64.90;;;;;;5026799;28;43948;-72
2022/04/15 05:02:51;;;;;;;1.90;1.90;;;19.80;64.90;;;;;;5026671;28;43945;-72
2022/04/15 05:05:19;;;;;;;1.90;1.90;;;19.80;65.00;;;;;;5026836;28;44011;-73
2022/04/15 05:07:47;;;;;;;1.60;1.60;;;19.60;65.00;;;;;;5026642;28;43953;-71
2022/04/15 05:10:17;;;;;;;2.00;2.00;;;19.50;65.20;;;;;;5026791;28;44163;-72
2022/04/15 05:12:46;;;;;;;1.60;1.60;;;19.50;65.60;;;;;;5027199;28;43400;-72
2022/04/15 05:15:14;;;;;;;1.70;1.70;;;19.40;66.20;;;;;;5027021;28;43397;-71
2022/04/15 05:17:41;;;;;;;1.80;1.80;;;19.40;66.60;;;;;;5026321;28;45141;-72
2022/04/15 05:20:10;;;;;;;1.80;1.80;;;19.50;66.20;;;;;;5026368;28;43888;-72
2022/04/15 05:22:38;;;;;;;1.90;1.90;;;19.60;65.90;;;;;;5026821;28;43905;-73
2022/04/15 05:25:07;;;;;;;2.00;2.00;;;19.70;65.70;;;;;;5026687;28;44018;-71
2022/04/15 05:27:37;;;;;;;2.03;2.03;;;19.60;65.40;;;;;;5026200;28;44042;-72
2022/04/15 05:30:06;;;;;;;1.77;1.77;;;19.50;65.40;;;;;;5025512;28;44060;-72
2022/04/15 05:32:33;;;;;;;1.87;1.87;;;19.50;65.60;;;;;;5008474;28;44006;-72
2022/04/15 05:35:01;;;;;;;2.00;2.00;;;19.40;65.80;;;;;;5026464;28;44006;-72
2022/04/15 05:37:29;;;;;;;1.93;1.93;;;19.30;65.90;;;;;;5026323;28;43945;-72
2022/04/15 05:39:57;;;;;;;2.00;2.00;;;19.30;66.10;;;;;;5026085;28;44069;-72
2022/04/15 05:42:27;;;;;;;1.90;1.90;;;19.20;66.20;;;;;;5026576;28;43929;-73
2022/04/15 05:44:57;;;;;;;1.97;1.97;;;19.20;66.40;;;;;;5026240;28;44101;-72
2022/04/15 05:47:25;;;;;;;2.10;2.10;;;19.20;66.80;;;;;;5008178;28;45390;-71
2022/04/15 05:49:52;;;;;;;2.00;2.00;;;19.20;67.00;;;;;;5026371;28;43933;-72
2022/04/15 05:52:20;;;;;;;2.20;2.07;;;19.30;66.90;;;;;;5026270;28;44052;-71
2022/04/15 05:54:48;;;;;;;2.20;2.20;;;19.60;66.40;;;;;;5026030;28;43418;-72
2022/04/15 05:57:16;;;;;;;2.00;2.00;;;19.70;65.70;;;;;;5025958;28;43962;-72
2022/04/15 05:59:44;;;;;;;2.27;2.13;;;19.90;65.20;;;;;;5026274;28;43937;-72
2022/04/15 06:02:14;;;;;;;1.87;1.87;;;19.90;64.90;;;;;;5025837;28;43403;-72
2022/04/15 06:04:42;;;;;;;2.00;2.00;;;19.90;64.90;;;;;;5026303;28;43965;-72
2022/04/15 06:07:10;;;;;;;2.00;2.00;;;19.80;64.90;;;;;;5025460;28;44089;-71
2022/04/15 06:09:37;;;;;;;2.10;2.10;;;19.60;64.90;;;;;;5026209;28;44048;-72
2022/04/15 06:12:11;;;;;;;2.30;2.27;;;19.60;65.20;;;;;;5025924;28;44052;-72
2022/04/15 06:14:39;;;;;;;2.03;2.03;;;19.50;65.50;;;;;;5008023;28;44020;-71
2022/04/15 06:17:07;;;;;;;1.90;1.90;;;19.40;65.70;;;;;;5025232;28;43939;-72
2022/04/15 06:19:36;;;;;;;2.10;2.10;;;19.30;65.90;;;;;;5025696;28;44010;-72
2022/04/15 06:22:10;;;;;;;1.90;1.90;;;19.30;67.40;;;;;;5025845;28;44034;-72
2022/04/15 06:24:38;;;;;;;2.07;2.07;;;19.30;66.60;;;;;;5026328;28;43452;-73
2022/04/15 06:27:06;;;;;;;2.03;2.03;;;19.50;66.40;;;;;;5007293;28;44227;-72
2022/04/15 06:29:34;;;;;;;2.30;2.20;;;19.60;66.00;;;;;;5026314;28;44068;-71
2022/04/15 06:32:02;;;;;;;2.20;2.20;;;19.60;65.80;;;;;;5025577;28;43977;-72
2022/04/15 06:34:29;;;;;;;1.90;1.90;;;19.50;65.50;;;;;;5025828;28;44213;-72
2022/04/15 06:36:59;;;;;;;2.20;2.20;;;19.50;65.50;;;;;;5025590;28;45150;-72
2022/04/15 06:39:32;;;;;;;2.13;2.13;;;19.40;65.80;;;;;;5025585;28;43400;-72
2022/04/15 06:42:00;;;;;;;2.20;2.20;;;19.30;65.90;;;;;;5025340;28;43407;-72
2022/04/15 06:44:29;;;;;;;2.07;2.07;;;19.20;66.10;;;;;;5026142;28;43495;-72
2022/04/15 06:46:57;;;;;;;2.13;2.00;;;19.20;66.30;;;;;;5025133;28;43801;-71
2022/04/15 06:49:25;;;;;;;2.10;2.10;;;19.20;66.50;;;;;;5025381;28;43489;-72
2022/04/15 06:51:53;;;;;;;2.00;2.00;;;19.10;66.50;;;;;;5025559;28;44069;-73
2022/04/15 06:54:22;;;;;;;2.03;2.03;;;19.10;66.60;;;;;;5026105;28;43303;-73
2022/04/15 06:56:50;;;;;;;2.30;2.30;;;19.10;67.10;;;;;;5025075;28;44872;-72
2022/04/15 06:59:18;;;;;;;2.03;2.03;;;19.30;67.00;;;;;;5025559;28;43869;-71
2022/04/15 07:01:46;;;;;;;2.23;2.23;;;19.40;66.50;;;;;;5025399;28;43892;-71
2022/04/15 07:04:14;;;;;;;2.10;2.10;;;19.60;65.90;;;;;;5026091;28;44063;-72
2022/04/15 07:06:43;;;;;;;2.10;2.10;;;19.80;65.30;;;;;;5025155;28;43953;-72
2022/04/15 07:09:12;;;;;;;2.43;2.43;;;19.90;64.90;;;;;;5006798;28;44698;-72
2022/04/15 07:11:41;;;;;;;2.20;2.20;;;19.80;64.70;;;;;;5025725;28;44044;-71
2022/04/15 07:14:09;;;;;;;2.10;2.10;;;19.80;64.90;;;;;;5028337;28;43359;-72
2022/04/15 07:16:37;;;;;;;2.17;2.17;;;19.70;65.00;;;;;;5028116;28;44006;-71
2022/04/15 07:19:07;;;;;;;1.97;1.97;;;19.60;65.20;;;;;;5009749;28;43480;-72
2022/04/15 07:21:35;;;;;;;1.93;1.93;;;19.50;65.50;;;;;;5028680;28;43837;-71
2022/04/15 07:24:03;;;;;;;1.90;1.90;;;19.40;65.70;;;;;;5028580;28;43958;-73
2022/04/15 07:26:31;;;;;;;2.30;2.30;;;19.30;65.90;;;;;;5026834;28;45674;-72
2022/04/15 07:29:00;;;;;;;2.30;2.30;;;19.30;66.60;;;;;;5021870;28;43835;-72
2022/04/15 07:31:28;;;;;;;2.10;2.00;;;19.40;66.70;;;;;;5003768;28;44143;-72
2022/04/15 07:33:56;;;;;;;2.30;2.30;;;19.50;66.20;;;;;;5021784;28;44042;-71
2022/04/15 07:36:42;;;;;;;2.27;2.27;;;19.60;65.90;;;;;;5003904;28;46836;-71
2022/04/15 07:39:11;;;;;;;2.13;2.13;;;19.60;65.70;;;;;;5024080;28;43978;-72
2022/04/15 07:41:40;;;;;;;2.20;2.20;;;19.50;65.60;;;;;;5027972;28;43934;-72
2022/04/15 07:44:09;;;;;;;2.20;2.20;;;19.40;65.60;;;;;;5028486;28;43707;-73
2022/04/15 07:46:38;;;;;;;2.40;2.40;;;19.30;65.80;;;;;;5027974;28;43963;-72
2022/04/15 07:49:06;;;;;;;2.50;2.40;;;19.30;66.10;;;;;;5028150;28;44073;-72
2022/04/15 07:51:34;;;;;;;2.37;2.30;;;19.20;66.20;;;;;;5028309;28;44056;-72
2022/04/15 07:54:02;;;;;;;2.13;2.13;;;19.20;66.40;;;;;;5027984;28;44004;-71
2022/04/15 07:56:30;;;;;;;2.40;2.40;;;19.10;66.50;;;;;;5027628;28;43988;-72
2022/04/15 07:58:58;;;;;;;2.50;2.50;;;19.10;66.60;;;;;;5027664;28;43782;-72
2022/04/15 08:01:31;;;;;;;2.60;2.50;;;19.10;66.90;;;;;;5027975;28;43991;-72
2022/04/15 08:03:59;;;;;;;2.40;2.40;;;19.20;67.10;;;;;;5028068;28;43893;-71
2022/04/15 08:06:29;;;;;;;2.03;2.03;;;19.30;66.90;;;;;;5027748;28;43915;-72
2022/04/15 08:08:58;;;;;;;2.23;2.23;;;19.50;66.30;;;;;;5027112;28;43720;-72
2022/04/15 08:11:26;;;;;;;2.53;2.53;;;19.70;65.80;;;;;;5028046;28;43980;-71
2022/04/15 08:13:54;;;;;;;2.10;2.10;;;19.80;65.90;;;;;;5027773;28;43952;-72
2022/04/15 08:16:23;;;;;;;2.40;2.40;;;19.90;65.10;;;;;;5027026;28;43955;-73
2022/04/15 08:18:55;;;;;;;2.33;2.33;;;19.80;64.90;;;;;;5027459;28;43826;-71
2022/04/15 08:21:23;;;;;;;2.20;2.20;;;19.80;65.00;;;;;;5027703;28;43851;-73
2022/04/15 08:23:51;;;;;;;2.30;2.30;;;19.60;65.20;;;;;;5027031;28;44109;-72
2022/04/15 08:26:19;;;;;;;2.20;2.20;;;19.50;65.50;;;;;;5028152;28;44105;-72
2022/04/15 08:28:47;;;;;;;2.10;2.10;;;19.40;65.80;;;;;;5027268;28;43546;-71
2022/04/15 08:31:14;;;;;;;2.30;2.30;;;19.40;66.10;;;;;;5027760;28;43882;-72
2022/04/15 08:33:42;;;;;;;2.20;2.20;;;19.30;66.20;;;;;;5027508;28;43910;-72
2022/04/15 08:36:12;;;;;;;2.43;2.43;;;19.30;66.80;;;;;;5026958;28;44028;-71
2022/04/15 08:38:39;;;;;;;1.93;1.93;;;19.30;66.70;;;;;;5027498;28;43975;-72
2022/04/15 08:41:13;;;;;;;2.50;2.47;;;19.50;66.30;;;;;;5027239;28;43409;-72
2022/04/15 08:43:41;;;;;;;2.00;2.00;;;19.60;65.80;;;;;;5027725;28;43960;-72
2022/04/15 08:46:10;;;;;;;2.47;2.40;;;19.60;65.60;;;;;;5026702;28;43761;-72
2022/04/15 08:48:39;;;;;;;2.63;2.57;;;19.50;65.60;;;;;;5026994;28;43824;-71
2022/04/15 08:51:08;;;;;;;2.40;2.40;;;19.50;65.80;;;;;;5026908;28;43957;-72
2022/04/15 08:53:39;;;;;;;2.83;2.80;;;19.40;65.90;;;;;;5020922;28;43992;-72
2022/04/15 08:56:07;;;;;;;2.50;2.50;;;19.30;66.10;;;;;;5002026;28;46398;-71
2022/04/15 08:58:35;;;;;;;2.40;2.40;;;19.30;66.40;;;;;;5020244;28;43981;-72
2022/04/15 09:01:03;;;;;;;2.90;2.90;;;19.20;66.40;;;;;;5020419;28;43981;-72
2022/04/15 09:03:31;;;;;;;2.80;2.70;;;19.20;66.40;;;;;;5020844;28;43768;-71
2022/04/15 09:05:59;;;;;;;2.53;2.50;;;19.20;66.60;;;;;;5020258;28;43958;-73
2022/04/15 09:08:27;;;;;;;2.70;2.50;;;19.10;66.90;;;;;;5020732;28;44119;-72
2022/04/15 09:10:59;;;;;;;2.67;2.57;;;19.20;67.20;;;;;;5002839;28;43910;-72
2022/04/15 09:13:31;;;;;;;2.67;2.67;;;19.30;66.80;;;;;;5021625;28;43933;-72
2022/04/15 09:16:00;;;;;;;2.60;2.60;;;19.50;66.20;;;;;;5025865;28;43883;-72
2022/04/15 09:18:32;;;;;;;2.40;2.40;;;19.70;65.70;;;;;;5026480;28;43532;-73
2022/04/15 09:21:16;;;;;;;2.27;2.27;;;19.80;65.20;;;;;;5026698;28;43417;-73
2022/04/15 09:23:47;;;;;;;2.33;2.33;;;19.90;65.00;;;;;;5027328;28;43851;-71
2022/04/15 09:26:16;;;;;;;2.47;2.47;;;19.80;64.90;;;;;;5026756;28;43775;-72
2022/04/15 09:28:44;;;;;;;2.20;2.20;;;19.70;65.00;;;;;;5026400;28;43943;-73
2022/04/15 09:31:14;;;;;;;2.30;2.30;;;19.60;65.30;;;;;;5008283;28;43941;-72
2022/04/15 09:33:52;;;;;;;2.17;2.17;;;19.50;65.60;;;;;;5026797;28;43953;-72
2022/04/15 09:36:27;;;;;;;2.30;2.30;;;19.40;65.90;;;;;;5025395;28;44047;-71
2022/04/15 09:39:00;;;;;;;2.50;2.30;;;19.30;66.10;;;;;;5020359;28;44239;-72
2022/04/15 09:41:30;;;;;;;2.17;2.17;;;19.30;66.30;;;;;;5026253;28;44299;-72
2022/04/15 09:43:59;;;;;;;2.20;2.20;;;19.30;66.90;;;;;;5008449;28;44030;-72
2022/04/15 09:46:29;;;;;;;2.40;2.40;;;19.30;66.70;;;;;;5025832;28;43954;-72
2022/04/15 09:49:07;;;;;;;2.60;2.50;;;19.50;66.30;;;;;;5026323;28;44001;-72
2022/04/15 09:51:41;;;;;;;2.50;2.50;;;19.50;65.90;;;;;;5026375;28;43938;-72
2022/04/15 09:54:11;;;;;;;2.40;2.40;;;19.50;65.70;;;;;;5026323;28;43991;-73
2022/04/15 09:56:43;;;;;;;2.40;2.30;;;19.50;65.90;;;;;;5025905;28;43961;-72
2022/04/15 09:59:12;;;;;;;2.50;2.50;;;19.40;66.10;;;;;;5025926;28;43791;-72
2022/04/15 10:01:41;;;;;;;2.23;2.10;;;19.30;66.20;;;;;;5025844;28;43948;-72
2022/04/15 10:04:11;;;;;;;2.10;2.10;;;19.30;66.50;;;;;;5026262;28;43968;-72
2022/04/15 10:06:39;;;;;;;2.40;2.30;;;19.20;66.60;;;;;;5025741;28;44939;-72
2022/04/15 10:09:11;;;;;;;2.07;2.07;;;19.20;66.80;;;;;;5025750;28;43933;-71
2022/04/15 10:11:42;;;;;;;2.57;2.40;;;19.20;66.90;;;;;;5026234;28;43978;-72
2022/04/15 10:14:10;;;;;;;2.20;2.20;;;19.20;67.70;;;;;;5019966;28;44007;-72
2022/04/15 10:16:38;;;;;;;2.00;2.00;;;19.20;67.20;;;;;;5019330;28;43775;-72
2022/04/15 10:19:07;;;;;;;2.20;2.20;;;19.30;67.00;;;;;;5007704;28;44571;-72
2022/04/15 10:21:35;;;;;;;2.77;2.57;;;19.50;66.50;;;;;;5019980;28;43966;-72
2022/04/15 10:24:03;;;;;;;2.20;2.20;;;19.70;66.00;;;;;;5008188;28;43834;-72
2022/04/15 10:26:35;;;;;;;1.90;1.87;;;19.80;65.40;;;;;;5025386;28;44928;-72
2022/04/15 10:29:05;;;;;;;2.50;2.30;;;19.90;64.90;;;;;;5025599;28;43905;-72
2022/04/15 10:31:38;;;;;;;1.97;1.97;;;19.90;64.90;;;;;;5007829;28;44096;-71
2022/04/15 10:34:11;;;;;;;1.97;1.93;;;19.80;65.00;;;;;;5007916;28;44001;-72
2022/04/15 10:36:39;;;;;;;1.80;1.80;;;19.70;65.20;;;;;;5025920;28;44996;-72
2022/04/15 10:39:17;;;;;;;1.73;1.73;;;19.60;65.50;;;;;;5025306;28;44133;-72
2022/04/15 10:41:57;;;;;;;1.97;1.97;;;19.50;65.80;;;;;;5025720;28;43422;-72
2022/04/15 10:44:30;;;;;;;1.83;1.83;;;19.40;66.10;;;;;;5025875;28;43938;-72
2022/04/15 10:47:00;;;;;;;2.20;2.20;;;19.30;66.20;;;;;;5026399;28;44415;-72
2022/04/15 10:49:30;;;;;;;1.93;1.93;;;19.30;66.70;;;;;;5028969;28;43943;-72
2022/04/15 10:52:02;;;;;;;1.80;1.80;;;19.30;66.70;;;;;;5022666;28;43973;-72
2022/04/15 10:54:40;;;;;;;1.93;1.93;;;19.50;66.50;;;;;;5023506;28;43361;-73
2022/04/15 10:57:11;;;;;;;2.07;2.07;;;19.60;66.10;;;;;;5028546;28;43933;-72
2022/04/15 11:02:42;;;;;;;1.70;1.70;;;19.60;65.80;;;;;;5028877;28;44001;-72
2022/04/15 11:05:12;;;;;;;1.80;1.80;;;19.50;66.00;;;;;;5028915;28;43377;-72
2022/04/15 11:07:48;;;;;;;1.80;1.80;;;19.40;67.00;;;;;;5028598;28;43872;-72
2022/04/15 11:10:40;;;;;;;1.70;1.70;;;19.30;66.50;;;;;;5028972;28;44407;-72
2022/04/15 11:13:08;;;;;;;1.90;1.80;;;19.20;66.60;;;;;;5028402;28;43326;-72
2022/04/15 11:15:58;;;;;;;1.90;1.90;;;19.20;66.90;;;;;;5029081;28;43934;-72
2022/04/15 11:18:27;;;;;;;1.80;1.80;;;19.20;67.00;;;;;;5028325;28;44751;-73
2022/04/15 11:20:55;;;;;;;2.00;1.90;;;19.10;67.10;;;;;;5027483;28;43523;-72
2022/04/15 11:23:23;;;;;;;1.77;1.77;;;19.20;68.20;;;;;;5028727;28;44017;-71
2022/04/15 11:25:51;;;;;;;1.80;1.80;;;19.30;67.10;;;;;;5028468;28;43846;-72
2022/04/15 11:28:20;;;;;;;2.00;2.00;;;19.50;66.70;;;;;;5028285;28;43965;-72
2022/04/15 11:30:49;;;;;;;1.93;1.93;;;19.70;66.20;;;;;;5028630;28;44007;-72
2022/04/15 11:33:19;;;;;;;1.83;1.83;;;19.80;65.70;;;;;;5028561;28;43949;-71
2022/04/15 11:35:47;;;;;;;2.00;2.00;;;19.80;65.30;;;;;;5010781;28;43904;-71
2022/04/15 11:38:15;;;;;;;2.10;2.00;;;19.80;65.50;;;;;;5028226;28;44071;-73
2022/04/15 11:40:44;;;;;;;2.00;2.00;;;19.60;65.60;;;;;;5028085;28;44088;-72
2022/04/15 11:43:12;;;;;;;2.00;1.90;;;19.60;66.00;;;;;;5027828;28;43950;-71
2022/04/15 11:45:40;;;;;;;2.10;2.03;;;19.50;66.20;;;;;;5028851;28;43413;-71
2022/04/15 11:48:20;;;;;;;2.03;2.03;;;19.40;66.60;;;;;;5027680;28;43979;-73
2022/04/15 11:50:49;;;;;;;2.00;1.90;;;19.30;66.70;;;;;;5028047;28;43925;-71
2022/04/15 11:53:18;;;;;;;1.80;1.80;;;19.30;66.90;;;;;;5028053;28;43913;-72
2022/04/15 11:55:50;;;;;;;2.30;2.20;;;19.20;67.10;;;;;;5010590;28;43996;-72
2022/04/15 11:58:18;;;;;;;2.00;2.00;;;19.30;67.20;;;;;;5027455;28;43906;-72
2022/04/15 12:00:56;;;;;;;1.80;1.80;;;19.50;66.90;;;;;;5027935;28;43425;-71
2022/04/15 12:03:26;;;;;;;1.80;1.80;;;19.70;66.30;;;;;;5027800;28;43424;-72
2022/04/15 12:05:54;;;;;;;2.03;2.03;;;19.80;65.70;;;;;;5028160;28;43468;-72
2022/04/15 12:08:22;;;;;;;1.90;1.90;;;19.80;65.50;;;;;;5021100;28;44041;-72
2022/04/15 12:10:50;;;;;;;2.10;2.10;;;19.80;65.50;;;;;;5020951;28;44020;-72
2022/04/15 12:13:18;;;;;;;2.00;1.93;;;19.70;65.70;;;;;;5021365;28;44010;-73
2022/04/15 12:15:47;;;;;;;2.07;2.03;;;19.60;66.00;;;;;;5021165;28;43965;-71
2022/04/15 12:18:14;;;;;;;1.97;1.87;;;19.50;66.30;;;;;;5021062;28;45205;-72
2022/04/15 12:20:44;;;;;;;1.90;1.83;;;19.50;66.60;;;;;;5021230;28;44111;-72
2022/04/15 12:23:14;;;;;;;2.23;2.23;;;19.40;66.70;;;;;;5021124;28;44037;-72
2022/04/15 12:31:28;;;;;;;3.00;2.80;;;19.30;67.10;;;;;;5027253;28;44022;-72
2022/04/15 12:33:57;;;;;;;4.00;3.70;;;19.50;66.80;;;;;;5021496;28;43887;-72
2022/04/15 12:36:38;;;;;;;5.40;4.93;;;19.60;66.40;;;;;;5027594;28;43895;-72
2022/04/15 12:39:06;;;;;;;6.43;5.33;;;19.60;66.10;;;;;;5026843;28;43974;-72
2022/04/15 12:41:45;;;;;;;8.63;6.47;;;19.50;66.10;;;;;;5026904;28;44017;-72
2022/04/15 12:44:18;;;;;;;10.60;7.90;;;19.50;66.30;;;;;;5009055;28;43918;-72
2022/04/15 12:46:46;;;;;;;13.67;8.87;;;19.40;66.60;;;;;;5009590;28;44235;-72
2022/04/15 12:49:28;;;;;;;14.53;8.60;;;19.30;66.70;;;;;;5009216;28;46256;-71
2022/04/15 12:52:12;;;;;;;11.37;8.30;;;19.30;67.00;;;;;;5026907;28;44038;-71
2022/04/15 12:54:59;;;;;;;12.77;8.77;;;19.30;67.20;;;;;;5027109;28;43958;-72
2022/04/15 12:57:31;;;;;;;12.10;9.30;;;19.20;67.20;;;;;;5027456;28;43921;-72
2022/04/15 12:59:59;;;;;;;13.90;8.73;;;19.20;67.30;;;;;;5026430;28;43961;-72
2022/04/15 13:02:28;;;;;;;13.50;8.80;;;19.20;67.50;;;;;;5026846;28;43410;-72
2022/04/15 13:04:57;;;;;;;20.50;10.50;;;19.30;67.20;;;;;;5026658;28;43379;-72
2022/04/15 13:07:26;;;;;;;20.97;11.80;;;19.50;66.80;;;;;;5027275;28;43984;-72